createdAt,value
2023-01-12T00:00:01.096Z,9.17
2023-01-12T00:02:29.934Z,12.50
2023-01-12T00:05:00.285Z,8.93
2023-01-12T00:07:29.483Z,8.77
2023-01-12T00:09:58.342Z,9.03
2023-01-12T00:12:27.103Z,10.53
2023-01-12T00:14:56.003Z,10.13
2023-01-12T00:17:24.754Z,9.20
2023-01-12T00:19:54.518Z,8.80
2023-01-12T00:22:24.857Z,8.83
2023-01-12T00:24:55.110Z,8.13
2023-01-12T00:27:24.228Z,10.63
2023-01-12T00:29:53.010Z,9.93
2023-01-12T00:32:22.552Z,9.73
2023-01-12T00:34:51.245Z,14.47
2023-01-12T00:37:21.034Z,8.90
2023-01-12T00:40:02.023Z,8.97
2023-01-12T00:42:48.564Z,10.40
2023-01-12T00:45:23.633Z,8.40
2023-01-12T00:47:53.532Z,7.60
2023-01-12T00:50:22.573Z,9.53
2023-01-12T00:52:51.377Z,8.47
2023-01-12T00:55:21.619Z,10.27
2023-01-12T00:57:50.397Z,11.03
2023-01-12T01:00:19.970Z,10.23
2023-01-12T01:02:48.869Z,9.97
2023-01-12T01:05:18.912Z,7.57
2023-01-12T01:07:48.248Z,11.13
2023-01-12T01:10:18.119Z,8.37
2023-01-12T01:12:48.562Z,6.53
2023-01-12T01:15:17.607Z,7.23
2023-01-12T01:17:46.440Z,7.43
2023-01-12T01:20:15.223Z,10.70
2023-01-12T01:22:44.042Z,10.93
2023-01-12T01:25:12.943Z,11.60
2023-01-12T01:27:41.839Z,7.40
2023-01-12T01:30:13.571Z,10.97
2023-01-12T01:32:42.419Z,7.90
2023-01-12T01:35:11.426Z,9.27
2023-01-12T01:37:40.324Z,9.50
2023-01-12T01:40:10.468Z,10.03
2023-01-12T01:42:40.412Z,8.87
2023-01-12T01:45:16.341Z,12.17
2023-01-12T01:47:48.597Z,9.10
2023-01-12T01:50:21.317Z,5.10
2023-01-12T01:52:53.561Z,8.47
2023-01-12T01:55:25.514Z,9.60
2023-01-12T01:57:58.402Z,12.93
2023-01-12T02:00:29.828Z,9.47
2023-01-12T02:02:59.325Z,8.73
2023-01-12T02:05:29.937Z,8.53
2023-01-12T02:08:04.391Z,7.33
2023-01-12T02:10:33.451Z,10.17
2023-01-12T02:13:19.851Z,7.60
2023-01-12T02:16:20.363Z,8.87
2023-01-12T02:19:02.243Z,10.47
2023-01-12T02:22:09.326Z,9.47
2023-01-12T02:25:07.891Z,7.90
2023-01-12T02:27:55.935Z,8.07
2023-01-12T02:31:00.463Z,9.77
2023-01-12T02:33:48.140Z,5.10
2023-01-12T02:36:24.609Z,11.07
2023-01-12T02:38:59.076Z,10.13
2023-01-12T02:41:55.345Z,7.27
2023-01-12T02:44:31.561Z,9.87
2023-01-12T02:47:02.299Z,7.20
2023-01-12T02:49:36.600Z,8.17
2023-01-12T02:52:10.571Z,6.87
2023-01-12T02:54:41.851Z,7.90
2023-01-12T02:57:12.181Z,8.47
2023-01-12T02:59:43.773Z,9.60
2023-01-12T03:02:15.257Z,5.60
2023-01-12T03:04:45.497Z,5.43
2023-01-12T03:07:38.865Z,7.17
2023-01-12T03:10:19.850Z,8.93
2023-01-12T03:12:52.787Z,6.80
2023-01-12T03:15:22.003Z,4.53
2023-01-12T03:17:56.205Z,8.27
2023-01-12T03:20:29.480Z,5.13
2023-01-12T03:23:02.571Z,5.80
2023-01-12T03:25:34.492Z,6.50
2023-01-12T03:28:06.347Z,8.47
2023-01-12T03:30:39.123Z,6.73
2023-01-12T03:33:08.823Z,8.33
2023-01-12T03:35:49.949Z,8.03
2023-01-12T03:38:25.944Z,6.03
2023-01-12T03:41:01.848Z,9.67
2023-01-12T03:43:35.060Z,7.23
2023-01-12T03:46:10.421Z,7.93
2023-01-12T03:48:44.564Z,4.97
2023-01-12T03:51:18.733Z,5.77
2023-01-12T03:53:50.671Z,9.00
2023-01-12T03:56:22.216Z,9.37
2023-01-12T03:58:51.887Z,5.17
2023-01-12T04:01:21.075Z,5.27
2023-01-12T04:03:50.613Z,8.40
2023-01-12T04:06:20.869Z,8.00
2023-01-12T04:08:49.551Z,4.03
2023-01-12T04:11:35.615Z,5.70
2023-01-12T04:14:04.557Z,9.00
2023-01-12T04:16:33.353Z,9.17
2023-01-12T04:19:02.099Z,9.33
2023-01-12T04:21:50.162Z,6.97
2023-01-12T04:24:21.783Z,7.27
2023-01-12T04:26:50.579Z,7.30
2023-01-12T04:29:19.421Z,6.93
2023-01-12T04:31:48.372Z,8.70
2023-01-12T04:34:17.254Z,6.77
2023-01-12T04:36:47.577Z,5.77
2023-01-12T04:39:16.278Z,11.27
2023-01-12T04:41:45.154Z,7.67
2023-01-12T04:44:14.029Z,7.63
2023-01-12T04:46:42.726Z,7.80
2023-01-12T04:49:11.485Z,6.80
2023-01-12T04:51:40.311Z,5.70
2023-01-12T04:54:11.227Z,7.23
2023-01-12T04:56:40.024Z,4.67
2023-01-12T04:59:10.772Z,6.43
2023-01-12T05:01:39.896Z,6.10
2023-01-12T05:04:10.782Z,6.53
2023-01-12T05:06:39.751Z,3.77
2023-01-12T05:09:40.700Z,8.60
2023-01-12T05:12:09.535Z,7.50
2023-01-12T05:14:38.377Z,6.10
2023-01-12T05:17:07.189Z,5.03
2023-01-12T05:19:35.919Z,4.87
2023-01-12T05:22:04.683Z,6.43
2023-01-12T05:24:35.141Z,5.50
2023-01-12T05:27:04.192Z,7.03
2023-01-12T05:29:33.073Z,5.70
2023-01-12T05:32:01.795Z,4.90
2023-01-12T05:34:30.632Z,5.07
2023-01-12T05:36:59.315Z,6.23
2023-01-12T05:39:28.207Z,4.20
2023-01-12T05:42:15.998Z,6.27
2023-01-12T05:44:44.789Z,3.93
2023-01-12T05:47:13.594Z,7.23
2023-01-12T05:49:42.477Z,5.87
2023-01-12T05:52:11.351Z,7.27
2023-01-12T05:54:40.159Z,6.17
2023-01-12T05:57:10.436Z,7.37
2023-01-12T05:59:43.050Z,7.07
2023-01-12T06:02:17.352Z,10.43
2023-01-12T06:04:46.162Z,4.63
2023-01-12T06:07:15.725Z,4.97
2023-01-12T06:09:46.652Z,6.90
2023-01-12T06:12:34.424Z,5.10
2023-01-12T06:15:03.330Z,8.40
2023-01-12T06:17:32.573Z,5.73
2023-01-12T06:20:01.380Z,10.83
2023-01-12T06:22:30.197Z,7.53
2023-01-12T06:24:59.136Z,4.60
2023-01-12T06:27:35.439Z,6.57
2023-01-12T06:30:04.262Z,5.60
2023-01-12T06:32:33.685Z,8.13
2023-01-12T06:35:13.973Z,6.07
2023-01-12T06:37:47.115Z,6.00
2023-01-12T06:40:17.333Z,4.23
2023-01-12T06:42:47.575Z,6.23
2023-01-12T06:45:16.385Z,5.90
2023-01-12T06:47:49.447Z,8.57
2023-01-12T06:50:18.757Z,7.60
2023-01-12T06:52:47.526Z,6.53
2023-01-12T06:55:16.373Z,6.53
2023-01-12T06:57:46.612Z,6.77
2023-01-12T07:00:16.207Z,9.70
2023-01-12T07:02:44.968Z,8.30
2023-01-12T07:05:13.799Z,6.70
2023-01-12T07:07:43.780Z,7.70
2023-01-12T07:10:13.486Z,9.73
2023-01-12T07:12:42.481Z,4.83
2023-01-12T07:15:14.707Z,5.93
2023-01-12T07:17:43.386Z,10.40
2023-01-12T07:20:15.210Z,7.80
2023-01-12T07:22:44.100Z,8.07
2023-01-12T07:25:12.790Z,4.70
2023-01-12T07:27:41.492Z,7.03
2023-01-12T07:30:14.016Z,8.83
2023-01-12T07:32:43.168Z,5.53
2023-01-12T07:35:12.414Z,9.10
2023-01-12T07:37:54.915Z,9.20
2023-01-12T07:40:23.988Z,6.23
2023-01-12T07:43:00.565Z,5.60
2023-01-12T07:45:31.811Z,7.77
2023-01-12T07:48:01.163Z,5.50
2023-01-12T07:50:31.681Z,9.10
2023-01-12T07:53:02.850Z,8.80
2023-01-12T07:55:32.716Z,7.43
2023-01-12T07:58:04.260Z,11.53
2023-01-12T08:00:34.919Z,9.40
2023-01-12T08:03:08.839Z,11.63
2023-01-12T08:05:38.918Z,11.73
2023-01-12T08:08:08.887Z,7.60
2023-01-12T08:10:37.599Z,8.70
2023-01-12T08:13:06.467Z,9.10
2023-01-12T08:15:41.705Z,8.67
2023-01-12T08:18:17.227Z,6.73
2023-01-12T08:20:46.575Z,7.63
2023-01-12T08:23:19.366Z,7.60
2023-01-12T08:25:56.375Z,8.57
2023-01-12T08:28:29.888Z,7.20
2023-01-12T08:31:00.209Z,5.00
2023-01-12T08:33:29.133Z,11.27
2023-01-12T08:35:59.036Z,8.27
2023-01-12T08:38:27.854Z,8.97
2023-01-12T08:41:13.972Z,7.13
2023-01-12T08:43:59.586Z,8.43
2023-01-12T08:46:29.885Z,5.40
2023-01-12T08:48:58.658Z,7.27
2023-01-12T08:51:27.508Z,8.10
2023-01-12T08:53:56.294Z,9.93
2023-01-12T08:56:25.378Z,7.03
2023-01-12T08:58:54.024Z,6.47
2023-01-12T09:01:23.161Z,8.50
2023-01-12T09:03:53.431Z,7.07
2023-01-12T09:06:24.965Z,5.23
2023-01-12T09:08:55.769Z,6.23
2023-01-12T09:11:25.596Z,5.83
2023-01-12T09:13:56.226Z,7.77
2023-01-12T09:16:25.469Z,5.93
2023-01-12T09:18:55.768Z,10.93
2023-01-12T09:21:26.741Z,5.70
2023-01-12T09:23:56.366Z,7.20
2023-01-12T09:26:28.496Z,7.83
2023-01-12T09:28:58.386Z,7.40
2023-01-12T09:31:32.425Z,7.03
2023-01-12T09:34:03.297Z,8.20
2023-01-12T09:36:34.516Z,6.07
2023-01-12T09:39:04.383Z,6.70
2023-01-12T09:41:53.488Z,7.73
2023-01-12T09:44:44.380Z,7.90
2023-01-12T09:47:20.560Z,7.83
2023-01-12T09:50:08.784Z,10.77
2023-01-12T09:52:50.634Z,12.27
2023-01-12T09:55:22.511Z,10.10
2023-01-12T09:58:19.621Z,9.63
2023-01-12T10:00:52.265Z,5.07
2023-01-12T10:03:29.575Z,4.80
2023-01-12T10:06:01.827Z,6.97
2023-01-12T10:08:34.882Z,6.57
2023-01-12T10:11:18.085Z,6.07
2023-01-12T10:14:17.916Z,6.43
2023-01-12T10:17:01.996Z,6.37
2023-01-12T10:19:36.304Z,7.43
2023-01-12T10:22:17.687Z,8.37
2023-01-12T10:24:47.682Z,6.93
2023-01-12T10:27:18.253Z,7.60
2023-01-12T10:29:49.672Z,3.97
2023-01-12T10:32:18.410Z,4.07
2023-01-12T10:34:51.570Z,5.30
2023-01-12T10:37:21.804Z,6.87
2023-01-12T10:39:53.925Z,6.73
2023-01-12T10:42:41.474Z,5.23
2023-01-12T10:45:20.845Z,7.47
2023-01-12T10:47:51.086Z,5.27
2023-01-12T10:50:26.410Z,4.17
2023-01-12T10:53:02.452Z,3.87
2023-01-12T10:55:33.757Z,6.57
2023-01-12T10:58:03.047Z,7.83
2023-01-12T11:00:32.365Z,6.50
2023-01-12T11:03:01.114Z,6.43
2023-01-12T11:05:34.227Z,7.03
2023-01-12T11:08:04.775Z,8.83
2023-01-12T11:10:37.508Z,9.23
2023-01-12T11:13:09.079Z,8.73
2023-01-12T11:15:40.186Z,6.03
2023-01-12T11:18:29.541Z,3.97
2023-01-12T11:21:03.186Z,5.57
2023-01-12T11:23:39.989Z,4.43
2023-01-12T11:26:18.853Z,4.10
2023-01-12T11:28:52.235Z,4.80
2023-01-12T11:31:24.257Z,4.40
2023-01-12T11:34:02.214Z,6.43
2023-01-12T11:36:38.469Z,6.50
2023-01-12T11:39:14.537Z,3.40
2023-01-12T11:42:08.183Z,5.93
2023-01-12T11:44:43.814Z,4.77
2023-01-12T11:47:19.428Z,11.07
2023-01-12T11:49:57.465Z,7.70
2023-01-12T11:52:28.537Z,5.07
2023-01-12T11:54:59.033Z,4.63
2023-01-12T11:57:54.023Z,4.43
2023-01-12T12:00:41.746Z,5.80
2023-01-12T12:03:31.773Z,5.80
2023-01-12T12:06:22.742Z,3.83
2023-01-12T12:08:59.141Z,6.10
2023-01-12T12:11:41.694Z,5.80
2023-01-12T12:14:26.773Z,4.70
2023-01-12T12:17:05.084Z,4.90
2023-01-12T12:19:42.872Z,5.50
2023-01-12T12:22:22.282Z,27.37
2023-01-12T12:25:11.486Z,7.43
2023-01-12T12:27:57.385Z,6.20
2023-01-12T12:30:49.077Z,5.33
2023-01-12T12:33:51.874Z,4.60
2023-01-12T12:36:27.204Z,5.37
2023-01-12T12:39:25.923Z,6.10
2023-01-12T12:42:19.033Z,3.43
2023-01-12T12:45:13.799Z,5.97
2023-01-12T12:47:56.600Z,5.57
2023-01-12T12:50:30.470Z,7.50
2023-01-12T12:53:17.801Z,3.93
2023-01-12T12:55:47.242Z,4.77
2023-01-12T12:58:41.768Z,5.50
2023-01-12T13:01:55.723Z,3.83
2023-01-12T13:05:04.529Z,6.27
2023-01-12T13:07:38.192Z,3.80
2023-01-12T13:10:32.475Z,3.67
2023-01-12T13:13:24.368Z,4.60
2023-01-12T13:16:17.154Z,4.57
2023-01-12T13:19:06.189Z,3.43
2023-01-12T13:21:56.446Z,3.73
2023-01-12T13:24:55.291Z,3.73
2023-01-12T13:27:50.803Z,3.60
2023-01-12T13:30:40.468Z,2.73
2023-01-12T13:33:25.060Z,3.50
2023-01-12T13:36:10.128Z,4.33
2023-01-12T13:39:09.117Z,3.23
2023-01-12T13:41:56.466Z,3.10
2023-01-12T13:44:31.783Z,6.30
2023-01-12T13:47:09.782Z,4.13
2023-01-12T13:49:47.373Z,3.50
2023-01-12T13:52:29.821Z,3.87
2023-01-12T13:54:59.127Z,2.70
2023-01-12T13:57:29.700Z,3.43
2023-01-12T14:00:09.101Z,4.60
2023-01-12T14:02:42.939Z,3.90
2023-01-12T14:05:32.069Z,5.57
2023-01-12T14:08:13.244Z,4.07
2023-01-12T14:10:49.386Z,4.20
2023-01-12T14:13:43.163Z,4.27
2023-01-12T14:16:32.846Z,5.37
2023-01-12T14:19:01.782Z,4.77
2023-01-12T14:21:33.385Z,2.57
2023-01-12T14:24:16.811Z,4.40
2023-01-12T14:26:45.773Z,2.73
2023-01-12T14:29:14.595Z,3.43
2023-01-12T14:31:45.958Z,4.27
2023-01-12T14:34:25.014Z,4.93
2023-01-12T14:36:53.935Z,3.27
2023-01-12T14:39:28.101Z,3.47
2023-01-12T14:42:17.902Z,2.90
2023-01-12T14:45:09.843Z,3.77
2023-01-12T14:47:38.976Z,3.53
2023-01-12T14:50:25.943Z,5.23
2023-01-12T14:52:54.727Z,2.90
2023-01-12T14:55:39.334Z,4.23
2023-01-12T14:58:15.852Z,4.67
2023-01-12T15:00:45.552Z,3.17
2023-01-12T15:03:28.786Z,3.10
2023-01-12T15:06:05.145Z,3.53
2023-01-12T15:08:35.651Z,2.27
2023-01-12T15:11:10.881Z,2.27
2023-01-12T15:13:41.977Z,3.43
2023-01-12T15:16:28.159Z,3.17
2023-01-12T15:19:14.331Z,2.17
2023-01-12T15:22:03.027Z,3.70
2023-01-12T15:24:54.263Z,1.53
2023-01-12T15:27:25.802Z,3.37
2023-01-12T15:29:55.039Z,4.00
2023-01-12T15:32:41.436Z,3.50
2023-01-12T15:35:17.489Z,1.00
2023-01-12T15:37:46.431Z,1.70
2023-01-12T15:40:16.051Z,2.23
2023-01-12T15:42:48.793Z,3.47
2023-01-12T15:45:27.723Z,1.30
2023-01-12T15:47:56.705Z,1.67
2023-01-12T15:50:29.361Z,1.73
2023-01-12T15:52:59.118Z,19.43
2023-01-12T15:55:28.113Z,19.07
2023-01-12T15:57:58.682Z,4.77
2023-01-12T16:00:27.808Z,3.27
2023-01-12T16:03:01.289Z,3.83
2023-01-12T16:05:30.198Z,2.73
2023-01-12T16:07:59.277Z,3.57
2023-01-12T16:10:30.340Z,3.20
2023-01-12T16:13:02.034Z,2.30
2023-01-12T16:15:35.903Z,3.10
2023-01-12T16:18:06.780Z,1.70
2023-01-12T16:20:35.747Z,1.90
2023-01-12T16:23:04.506Z,1.63
2023-01-12T16:25:33.540Z,2.17
2023-01-12T16:28:03.794Z,6.00
2023-01-12T16:30:32.414Z,3.80
2023-01-12T16:33:01.108Z,4.13
2023-01-12T16:35:30.061Z,4.10
2023-01-12T16:37:58.857Z,3.60
2023-01-12T16:40:27.688Z,3.70
2023-01-12T16:42:56.505Z,5.23
2023-01-12T16:45:26.697Z,4.67
2023-01-12T16:47:58.082Z,3.70
2023-01-12T16:50:27.056Z,3.40
2023-01-12T16:52:55.758Z,4.03
2023-01-12T16:55:27.966Z,6.17
2023-01-12T16:57:56.816Z,7.03
2023-01-12T17:00:28.099Z,5.23
2023-01-12T17:02:57.319Z,3.50
2023-01-12T17:05:27.119Z,2.60
2023-01-12T17:07:55.961Z,1.90
2023-01-12T17:10:24.800Z,1.70
2023-01-12T17:12:58.594Z,3.20
2023-01-12T17:15:31.397Z,1.53
2023-01-12T17:18:00.575Z,2.10
2023-01-12T17:20:30.029Z,3.33
2023-01-12T17:22:59.845Z,1.77
2023-01-12T17:25:28.645Z,2.40
2023-01-12T17:27:57.764Z,1.97
2023-01-12T17:30:27.166Z,1.47
2023-01-12T17:32:57.467Z,2.83
2023-01-12T17:35:26.921Z,2.53
2023-01-12T17:37:56.137Z,1.83
2023-01-12T17:40:27.420Z,2.60
2023-01-12T17:43:07.787Z,2.30
2023-01-12T17:45:42.645Z,2.73
2023-01-12T17:48:13.486Z,3.03
2023-01-12T17:50:42.448Z,1.60
2023-01-12T17:53:11.436Z,2.90
2023-01-12T17:55:48.551Z,2.10
2023-01-12T17:58:18.745Z,1.87
2023-01-12T18:00:47.399Z,2.50
2023-01-12T18:03:17.716Z,2.13
2023-01-12T18:05:50.010Z,2.87
2023-01-12T18:08:22.416Z,1.50
2023-01-12T18:10:52.966Z,2.33
2023-01-12T18:13:21.692Z,1.90
2023-01-12T18:15:50.479Z,1.70
2023-01-12T18:18:20.975Z,1.50
2023-01-12T18:20:52.366Z,3.43
2023-01-12T18:23:27.084Z,1.80
2023-01-12T18:25:55.923Z,2.33
2023-01-12T18:28:24.785Z,2.10
2023-01-12T18:31:03.326Z,2.03
2023-01-12T18:33:38.438Z,1.20
2023-01-12T18:36:12.182Z,1.50
2023-01-12T18:38:41.755Z,2.60
2023-01-12T18:41:30.798Z,1.77
2023-01-12T18:44:01.314Z,1.20
2023-01-12T18:46:51.273Z,1.50
2023-01-12T18:49:22.720Z,1.97
2023-01-12T18:52:09.091Z,3.50
2023-01-12T18:54:39.889Z,2.00
2023-01-12T18:57:08.692Z,1.33
2023-01-12T18:59:37.437Z,1.53
2023-01-12T19:02:08.439Z,2.07
2023-01-12T19:05:04.386Z,1.40
2023-01-12T19:07:40.239Z,1.70
2023-01-12T19:10:10.013Z,1.90
2023-01-12T19:12:39.005Z,1.73
2023-01-12T19:15:28.607Z,1.93
2023-01-12T19:17:57.230Z,3.07
2023-01-12T19:20:29.885Z,2.27
2023-01-12T19:23:16.166Z,2.10
2023-01-12T19:26:07.609Z,6.83
2023-01-12T19:28:37.037Z,4.43
2023-01-12T19:31:09.830Z,6.90
2023-01-12T19:33:38.995Z,8.10
2023-01-12T19:36:11.518Z,5.37
2023-01-12T19:38:42.901Z,3.20
2023-01-12T19:41:13.385Z,5.20
2023-01-12T19:43:45.363Z,2.70
2023-01-12T19:46:14.417Z,2.67
2023-01-12T19:48:43.120Z,4.83
2023-01-12T19:51:15.149Z,4.87
2023-01-12T19:53:43.878Z,2.30
2023-01-12T19:56:16.383Z,2.00
2023-01-12T19:58:45.132Z,3.07
2023-01-12T20:01:21.779Z,2.57
2023-01-12T20:03:51.802Z,3.47
2023-01-12T20:06:22.010Z,2.57
2023-01-12T20:08:50.816Z,1.97
2023-01-12T20:11:19.542Z,4.60
2023-01-12T20:13:48.239Z,2.47
2023-01-12T20:16:17.413Z,3.20
2023-01-12T20:18:48.124Z,2.03
2023-01-12T20:21:17.103Z,2.07
2023-01-12T20:23:47.485Z,2.90
2023-01-12T20:26:16.260Z,1.67
2023-01-12T20:28:44.980Z,2.50
2023-01-12T20:31:15.763Z,1.50
2023-01-12T20:33:44.643Z,1.30
2023-01-12T20:36:14.097Z,1.83
2023-01-12T20:38:43.820Z,2.90
2023-01-12T20:41:14.200Z,1.97
2023-01-12T20:43:43.033Z,2.57
2023-01-12T20:46:14.075Z,4.03
2023-01-12T20:48:42.893Z,2.80
2023-01-12T20:51:15.805Z,1.20
2023-01-12T20:53:44.872Z,2.47
2023-01-12T20:56:15.228Z,2.67
2023-01-12T20:58:43.973Z,2.73
2023-01-12T21:01:14.275Z,3.30
2023-01-12T21:03:44.156Z,2.00
2023-01-12T21:06:15.019Z,1.90
2023-01-12T21:08:44.970Z,2.23
2023-01-12T21:11:17.051Z,2.33
2023-01-12T21:13:46.213Z,1.87
2023-01-12T21:16:18.182Z,2.00
2023-01-12T21:18:48.151Z,4.30
2023-01-12T21:21:16.893Z,1.60
2023-01-12T21:23:45.828Z,3.83
2023-01-12T21:26:16.455Z,1.77
2023-01-12T21:28:45.131Z,1.93
2023-01-12T21:31:14.557Z,3.87
2023-01-12T21:33:43.846Z,2.27
2023-01-12T21:36:14.264Z,3.50
2023-01-12T21:38:42.829Z,1.80
2023-01-12T21:41:12.625Z,4.33
2023-01-12T21:43:42.659Z,2.27
2023-01-12T21:46:12.015Z,2.37
2023-01-12T21:48:40.741Z,1.63
2023-01-12T21:51:13.564Z,1.63
2023-01-12T21:53:42.883Z,4.27
2023-01-12T21:56:12.992Z,1.60
2023-01-12T21:58:43.304Z,2.60
2023-01-12T22:01:14.254Z,1.70
2023-01-12T22:03:43.174Z,1.47
2023-01-12T22:06:13.966Z,1.17
2023-01-12T22:08:43.519Z,1.10
2023-01-12T22:11:14.410Z,1.17
2023-01-12T22:13:44.981Z,2.53
2023-01-12T22:16:15.492Z,2.17
2023-01-12T22:18:47.205Z,1.63
2023-01-12T22:21:16.886Z,2.07
2023-01-12T22:23:46.184Z,1.90
2023-01-12T22:26:16.570Z,2.67
2023-01-12T22:28:48.271Z,1.30
2023-01-12T22:31:18.763Z,1.93
2023-01-12T22:33:48.021Z,2.27
2023-01-12T22:36:16.813Z,1.17
2023-01-12T22:38:45.607Z,1.77
2023-01-12T22:41:16.661Z,1.80
2023-01-12T22:43:49.230Z,1.70
2023-01-12T22:46:19.282Z,2.73
2023-01-12T22:48:50.647Z,2.37
2023-01-12T22:51:20.369Z,2.00
2023-01-12T22:53:49.499Z,2.43
2023-01-12T22:56:18.836Z,2.07
2023-01-12T22:58:50.551Z,1.93
2023-01-12T23:01:20.238Z,2.33
2023-01-12T23:03:50.091Z,1.43
2023-01-12T23:06:19.245Z,2.40
2023-01-12T23:08:48.083Z,2.37
2023-01-12T23:11:19.004Z,1.80
2023-01-12T23:13:49.984Z,2.73
2023-01-12T23:16:20.339Z,2.20
2023-01-12T23:18:50.400Z,0.90
2023-01-12T23:21:22.567Z,1.47
2023-01-12T23:23:52.732Z,2.20
2023-01-12T23:26:23.129Z,1.43
2023-01-12T23:28:55.962Z,2.27
2023-01-12T23:31:27.227Z,1.03
2023-01-12T23:33:57.095Z,3.63
2023-01-12T23:36:28.969Z,3.20
2023-01-12T23:38:59.187Z,2.13
2023-01-12T23:41:29.645Z,1.63
2023-01-12T23:44:01.915Z,3.57
2023-01-12T23:46:34.051Z,2.93
2023-01-12T23:49:02.862Z,1.60
2023-01-12T23:51:31.926Z,2.80
2023-01-12T23:54:02.251Z,2.33
2023-01-12T23:56:32.956Z,1.57
2023-01-12T23:59:03.524Z,3.57
